createdAt,value
2022-10-03T00:01:49.422Z,80.20
2022-10-03T00:04:27.611Z,80.30
2022-10-03T00:07:07.233Z,78.10
2022-10-03T00:10:05.893Z,74.80
2022-10-03T00:12:57.529Z,69.80
2022-10-03T00:15:33.140Z,70.30
2022-10-03T00:18:14.824Z,69.80
2022-10-03T00:20:53.513Z,70.20
2022-10-03T00:23:28.938Z,69.80
2022-10-03T00:26:24.005Z,69.30
2022-10-03T00:29:03.664Z,67.70
2022-10-03T00:31:44.936Z,68.90
2022-10-03T00:34:24.999Z,69.50
2022-10-03T00:37:05.411Z,69.30
2022-10-03T00:39:49.016Z,70.00
2022-10-03T00:42:52.408Z,71.00
2022-10-03T00:45:55.513Z,71.40
2022-10-03T00:48:54.309Z,71.20
2022-10-03T00:51:43.019Z,70.10
2022-10-03T00:54:38.993Z,73.00
2022-10-03T00:57:22.097Z,75.30
2022-10-03T01:00:07.837Z,77.70
2022-10-03T01:02:50.976Z,80.40
2022-10-03T01:05:33.587Z,81.20
2022-10-03T01:08:43.441Z,83.70
2022-10-03T01:11:30.133Z,87.30
2022-10-03T01:14:11.862Z,85.10
2022-10-03T01:16:54.493Z,87.10
2022-10-03T01:19:36.275Z,87.10
2022-10-03T01:22:23.908Z,85.70
2022-10-03T01:25:00.377Z,85.20
2022-10-03T01:28:00.571Z,85.60
2022-10-03T01:30:37.170Z,83.60
2022-10-03T01:33:11.273Z,84.30
2022-10-03T01:35:49.626Z,83.80
2022-10-03T01:38:26.241Z,83.00
2022-10-03T01:41:03.178Z,82.80
2022-10-03T01:43:42.325Z,83.40
2022-10-03T01:46:18.218Z,82.90
2022-10-03T01:48:55.350Z,82.80
2022-10-03T01:51:30.759Z,82.00
2022-10-03T01:54:13.517Z,82.20
2022-10-03T01:56:50.482Z,80.60
2022-10-03T01:59:23.864Z,80.00
2022-10-03T02:01:59.446Z,78.10
2022-10-03T02:04:38.720Z,75.00
2022-10-03T02:07:21.386Z,74.50
2022-10-03T02:09:59.049Z,75.90
2022-10-03T02:12:34.952Z,72.10
2022-10-03T02:15:14.320Z,69.80
2022-10-03T02:17:55.518Z,71.60
2022-10-03T02:20:29.365Z,71.10
2022-10-03T02:22:59.597Z,71.90
2022-10-03T02:25:41.924Z,68.60
2022-10-03T02:28:32.363Z,70.40
2022-10-03T02:31:28.326Z,66.00
2022-10-03T02:34:18.297Z,64.90
2022-10-03T02:37:05.216Z,65.20
2022-10-03T02:40:10.294Z,64.50
2022-10-03T02:43:04.883Z,62.00
2022-10-03T02:46:14.873Z,63.10
2022-10-03T02:49:22.555Z,64.30
2022-10-03T02:52:23.559Z,62.80
2022-10-03T02:55:00.129Z,65.40
2022-10-03T02:57:56.553Z,67.60
2022-10-03T03:00:37.175Z,68.50
2022-10-03T03:03:41.458Z,71.40
2022-10-03T03:06:32.446Z,73.10
2022-10-03T03:09:29.468Z,73.00
2022-10-03T03:12:29.751Z,73.60
2022-10-03T03:15:28.790Z,73.30
2022-10-03T03:18:10.100Z,75.00
2022-10-03T03:20:52.304Z,76.50
2022-10-03T03:23:40.299Z,74.60
2022-10-03T03:26:39.153Z,76.20
2022-10-03T03:29:18.093Z,76.00
2022-10-03T03:32:03.263Z,76.90
2022-10-03T03:34:37.460Z,78.60
2022-10-03T03:37:11.559Z,80.30
2022-10-03T03:39:57.608Z,81.90
2022-10-03T03:42:45.382Z,82.10
2022-10-03T03:45:29.539Z,81.00
2022-10-03T03:48:27.820Z,84.70
2022-10-03T03:51:05.694Z,86.30
2022-10-03T03:53:48.008Z,87.20
2022-10-03T03:56:33.249Z,85.10
2022-10-03T03:59:14.700Z,82.90
2022-10-03T04:01:57.983Z,84.70
2022-10-03T04:04:45.366Z,84.50
2022-10-03T04:07:25.784Z,84.80
2022-10-03T04:10:15.611Z,81.60
2022-10-03T04:12:57.914Z,77.40
2022-10-03T04:15:50.183Z,77.10
2022-10-03T04:18:46.389Z,76.90
2022-10-03T04:21:44.399Z,76.00
2022-10-03T04:24:36.921Z,75.20
2022-10-03T04:27:28.972Z,75.20
2022-10-03T04:30:07.277Z,73.20
2022-10-03T04:33:04.355Z,73.10
2022-10-03T04:36:12.092Z,70.80
2022-10-03T04:38:47.055Z,73.70
2022-10-03T04:41:30.019Z,64.20
2022-10-03T04:44:08.658Z,67.90
2022-10-03T04:46:44.346Z,62.70
2022-10-03T04:49:23.840Z,64.10
2022-10-03T04:51:55.848Z,66.00
2022-10-03T04:54:31.236Z,64.40
2022-10-03T04:57:07.084Z,67.40
2022-10-03T04:59:44.492Z,65.70
2022-10-03T05:02:26.853Z,65.70
2022-10-03T05:05:23.113Z,64.40
2022-10-03T05:07:59.640Z,60.10
2022-10-03T05:10:57.231Z,60.20
2022-10-03T05:13:37.491Z,59.60
2022-10-03T05:16:12.500Z,61.10
2022-10-03T05:18:48.520Z,58.60
2022-10-03T05:21:28.087Z,57.40
2022-10-03T05:24:03.199Z,58.10
2022-10-03T05:26:45.543Z,55.90
2022-10-03T05:29:21.870Z,53.30
2022-10-03T05:32:03.911Z,53.40
2022-10-03T05:34:41.427Z,54.50
2022-10-03T05:37:37.107Z,55.10
2022-10-03T05:40:16.942Z,48.90
2022-10-03T05:43:04.765Z,50.20
2022-10-03T05:45:48.383Z,48.70
2022-10-03T05:48:30.096Z,45.60
2022-10-03T05:51:22.126Z,45.50
2022-10-03T05:54:50.240Z,39.40
2022-10-03T05:57:36.674Z,32.70
2022-10-03T06:00:19.343Z,28.90
2022-10-03T06:03:23.753Z,25.50
2022-10-03T06:06:14.045Z,25.60
2022-10-03T06:09:02.469Z,28.00
2022-10-03T06:12:03.882Z,22.40
2022-10-03T06:14:50.552Z,14.70
2022-10-03T06:17:43.367Z,17.50
2022-10-03T06:20:44.292Z,13.70
2022-10-03T06:23:44.182Z,11.50
2022-10-03T06:27:03.132Z,11.00
2022-10-03T06:30:14.242Z,5.00
2022-10-03T06:33:25.505Z,1.00
2022-10-03T06:36:22.383Z,1.00
2022-10-03T06:39:22.084Z,1.00
2022-10-03T06:42:28.308Z,1.00
2022-10-03T06:45:32.091Z,1.00
2022-10-03T06:48:18.010Z,1.00
2022-10-03T06:50:57.288Z,1.00
2022-10-03T06:53:35.319Z,1.00
2022-10-03T06:56:27.988Z,1.00
2022-10-03T06:59:30.233Z,1.00
2022-10-03T07:02:32.103Z,1.00
2022-10-03T07:05:39.876Z,1.00
2022-10-03T07:08:45.269Z,1.00
2022-10-03T07:11:39.160Z,1.00
2022-10-03T07:14:28.290Z,1.00
2022-10-03T07:17:30.755Z,1.00
2022-10-03T07:20:17.403Z,1.00
2022-10-03T07:23:21.369Z,1.00
2022-10-03T07:26:31.795Z,1.00
2022-10-03T07:29:16.971Z,1.00
2022-10-03T07:31:59.495Z,1.00
2022-10-03T07:34:52.849Z,1.00
2022-10-03T07:37:48.565Z,1.00
2022-10-03T07:40:37.633Z,1.00
2022-10-03T07:43:56.287Z,1.00
2022-10-03T07:46:52.949Z,1.00
2022-10-03T07:49:55.756Z,1.00
2022-10-03T07:52:52.320Z,1.00
2022-10-03T07:55:43.330Z,1.00
2022-10-03T07:58:52.062Z,1.00
2022-10-03T08:01:53.358Z,1.00
2022-10-03T08:04:40.137Z,1.00
2022-10-03T08:07:32.294Z,1.00
2022-10-03T08:10:18.224Z,1.00
2022-10-03T08:13:03.450Z,1.00
2022-10-03T08:15:41.081Z,1.00
2022-10-03T08:18:52.256Z,1.00
2022-10-03T08:21:26.543Z,1.00
2022-10-03T08:24:23.421Z,1.00
2022-10-03T08:27:09.046Z,1.00
2022-10-03T08:30:07.210Z,1.00
2022-10-03T08:32:56.840Z,1.00
2022-10-03T08:36:07.519Z,1.00
2022-10-03T08:38:54.025Z,1.00
2022-10-03T08:41:55.480Z,1.00
2022-10-03T08:44:52.828Z,1.00
2022-10-03T08:48:05.756Z,1.00
2022-10-03T08:51:18.483Z,1.00
2022-10-03T08:54:05.117Z,1.00
2022-10-03T08:56:49.472Z,1.00
2022-10-03T09:00:03.238Z,1.00
2022-10-03T09:03:34.462Z,1.00
2022-10-03T09:06:33.107Z,1.00
2022-10-03T09:09:24.663Z,1.00
2022-10-03T09:12:25.648Z,1.00
2022-10-03T09:15:25.102Z,1.00
2022-10-03T09:18:10.447Z,1.00
2022-10-03T09:21:37.405Z,1.00
2022-10-03T09:24:55.149Z,1.00
2022-10-03T09:27:42.163Z,1.00
2022-10-03T09:30:26.255Z,1.00
2022-10-03T09:33:41.999Z,1.00
2022-10-03T09:36:30.616Z,1.00
2022-10-03T09:39:30.141Z,1.00
2022-10-03T09:42:31.110Z,1.00
2022-10-03T09:45:22.174Z,1.00
2022-10-03T09:48:26.392Z,1.00
2022-10-03T09:51:21.791Z,1.00
2022-10-03T09:54:37.712Z,1.00
2022-10-03T09:57:42.142Z,1.00
2022-10-03T10:00:20.282Z,1.00
2022-10-03T10:03:27.116Z,1.00
2022-10-03T10:06:24.966Z,99.90
2022-10-03T10:09:24.381Z,1.00
2022-10-03T10:12:28.686Z,1.00
2022-10-03T10:15:35.172Z,1.00
2022-10-03T10:18:51.752Z,1.00
2022-10-03T10:21:52.474Z,1.00
2022-10-03T10:24:51.343Z,1.00
2022-10-03T10:28:04.165Z,1.00
2022-10-03T10:30:53.184Z,1.00
2022-10-03T10:33:58.956Z,1.00
2022-10-03T10:37:19.130Z,1.00
2022-10-03T10:40:17.611Z,1.00
2022-10-03T10:43:21.115Z,1.00
2022-10-03T10:46:25.073Z,1.00
2022-10-03T10:49:38.531Z,1.00
2022-10-03T10:52:34.042Z,1.00
2022-10-03T10:55:46.324Z,1.00
2022-10-03T10:59:09.315Z,1.00
2022-10-03T11:02:22.987Z,1.00
2022-10-03T11:05:40.304Z,1.00
2022-10-03T11:09:09.407Z,1.00
2022-10-03T11:12:11.544Z,1.00
2022-10-03T11:15:12.818Z,1.00
2022-10-03T11:18:19.427Z,1.00
2022-10-03T11:21:26.582Z,1.00
2022-10-03T11:24:39.693Z,1.00
2022-10-03T11:27:46.721Z,1.00
2022-10-03T11:30:29.745Z,1.00
2022-10-03T11:33:48.820Z,1.00
2022-10-03T11:36:49.318Z,1.00
2022-10-03T11:39:27.742Z,1.00
2022-10-03T11:42:04.409Z,1.00
2022-10-03T11:44:35.583Z,99.90
2022-10-03T11:47:44.112Z,1.00
2022-10-03T11:50:35.049Z,99.90
2022-10-03T11:53:22.206Z,99.90
2022-10-03T11:56:02.157Z,99.90
2022-10-03T11:58:41.004Z,99.90
2022-10-03T12:01:28.743Z,99.90
2022-10-03T12:04:04.317Z,99.90
2022-10-03T12:07:08.127Z,99.90
2022-10-03T12:09:48.027Z,99.90
2022-10-03T12:12:28.081Z,99.90
2022-10-03T12:15:00.022Z,99.90
2022-10-03T12:17:33.888Z,99.90
2022-10-03T12:20:11.035Z,99.90
2022-10-03T12:22:49.982Z,99.90
2022-10-03T12:25:23.760Z,99.90
2022-10-03T12:28:02.708Z,99.90
2022-10-03T12:30:48.399Z,99.90
2022-10-03T12:33:49.149Z,99.90
2022-10-03T12:36:19.706Z,99.90
2022-10-03T12:39:19.173Z,99.90
2022-10-03T12:42:15.965Z,99.90
2022-10-03T12:44:53.138Z,99.90
2022-10-03T12:47:54.752Z,99.90
2022-10-03T12:50:39.102Z,99.90
2022-10-03T12:53:25.242Z,99.90
2022-10-03T12:56:08.401Z,99.90
2022-10-03T12:58:54.345Z,99.90
2022-10-03T13:01:35.670Z,99.90
2022-10-03T13:04:09.707Z,99.90
2022-10-03T13:07:03.693Z,99.90
2022-10-03T13:09:57.487Z,99.90
2022-10-03T13:12:39.225Z,99.90
2022-10-03T13:15:44.451Z,99.90
2022-10-03T13:18:30.424Z,99.90
2022-10-03T13:21:33.378Z,99.90
2022-10-03T13:24:01.995Z,99.90
2022-10-03T13:26:47.559Z,99.90
2022-10-03T13:29:23.798Z,99.90
2022-10-03T13:32:05.265Z,99.90
2022-10-03T13:34:47.547Z,99.90
2022-10-03T13:37:27.161Z,99.90
2022-10-03T13:40:03.167Z,99.90
2022-10-03T13:42:37.381Z,99.90
2022-10-03T13:45:14.996Z,99.90
2022-10-03T13:47:49.413Z,99.90
2022-10-03T13:50:26.817Z,99.90
2022-10-03T13:53:00.955Z,99.90
2022-10-03T13:55:39.834Z,99.90
2022-10-03T13:58:30.452Z,99.90
2022-10-03T14:01:21.669Z,99.90
2022-10-03T14:04:11.847Z,99.90
2022-10-03T14:06:51.080Z,99.90
2022-10-03T14:09:34.992Z,99.90
2022-10-03T14:12:13.473Z,99.90
2022-10-03T14:14:53.045Z,99.90
2022-10-03T14:17:32.370Z,99.90
2022-10-03T14:20:13.669Z,99.90
2022-10-03T14:23:49.172Z,99.90
2022-10-03T14:26:44.217Z,99.90
2022-10-03T14:29:27.178Z,99.90
2022-10-03T14:31:59.205Z,99.90
2022-10-03T14:34:39.536Z,99.90
2022-10-03T14:37:21.518Z,99.90
2022-10-03T14:40:05.065Z,1.00
2022-10-03T14:42:50.107Z,1.00
2022-10-03T14:45:21.615Z,1.00
2022-10-03T14:47:52.708Z,1.00
2022-10-03T14:50:25.496Z,1.00
2022-10-03T14:53:02.224Z,1.00
2022-10-03T14:55:34.951Z,1.00
2022-10-03T14:58:10.685Z,1.00
2022-10-03T15:00:44.106Z,1.00
2022-10-03T15:03:33.698Z,1.00
2022-10-03T15:06:19.828Z,1.00
2022-10-03T15:08:52.376Z,1.00
2022-10-03T15:11:27.222Z,1.00
2022-10-03T15:14:02.338Z,1.00
2022-10-03T15:16:34.619Z,1.00
2022-10-03T15:19:08.010Z,1.00
2022-10-03T15:21:37.390Z,1.00
2022-10-03T15:24:06.292Z,1.00
2022-10-03T15:26:37.275Z,1.00
2022-10-03T15:29:08.526Z,1.00
2022-10-03T15:31:39.902Z,1.00
2022-10-03T15:34:16.956Z,1.00
2022-10-03T15:36:49.328Z,1.00
2022-10-03T15:39:25.436Z,1.00
2022-10-03T15:41:57.485Z,1.00
2022-10-03T15:44:33.611Z,1.00
2022-10-03T15:47:07.068Z,1.00
2022-10-03T15:49:39.636Z,1.00
2022-10-03T15:52:15.769Z,1.00
2022-10-03T15:54:48.797Z,1.00
2022-10-03T15:57:24.242Z,1.00
2022-10-03T16:00:02.071Z,1.00
2022-10-03T16:02:36.418Z,1.00
2022-10-03T16:05:07.517Z,1.00
2022-10-03T16:07:41.666Z,1.00
2022-10-03T16:10:20.464Z,1.00
2022-10-03T16:13:07.840Z,1.00
2022-10-03T16:15:54.606Z,1.00
2022-10-03T16:18:52.299Z,1.00
2022-10-03T16:21:43.142Z,1.00
2022-10-03T16:24:25.730Z,1.00
2022-10-03T16:26:57.018Z,1.00
2022-10-03T16:29:30.673Z,1.00
2022-10-03T16:32:04.937Z,1.00
2022-10-03T16:34:35.217Z,1.00
2022-10-03T16:37:06.245Z,1.00
2022-10-03T16:39:36.956Z,1.00
2022-10-03T16:42:12.706Z,1.00
2022-10-03T16:44:50.995Z,1.00
2022-10-03T16:47:32.177Z,1.00
2022-10-03T16:50:19.269Z,1.00
2022-10-03T16:52:52.008Z,1.00
2022-10-03T16:55:26.076Z,1.00
2022-10-03T16:57:58.367Z,1.00
2022-10-03T17:00:34.022Z,1.00
2022-10-03T17:03:06.533Z,1.00
2022-10-03T17:05:41.998Z,1.00
2022-10-03T17:08:40.270Z,1.00
2022-10-03T17:11:05.353Z,1.00
2022-10-03T17:13:48.011Z,1.00
2022-10-03T17:16:27.552Z,1.00
2022-10-03T17:19:13.245Z,1.00
2022-10-03T17:21:44.103Z,1.00
2022-10-03T17:24:16.037Z,1.00
2022-10-03T17:26:47.135Z,1.00
2022-10-03T17:29:19.244Z,1.00
2022-10-03T17:31:55.032Z,1.00
2022-10-03T17:34:26.992Z,1.00
2022-10-03T17:37:10.890Z,1.00
2022-10-03T17:39:44.033Z,1.00
2022-10-03T17:42:27.725Z,1.00
2022-10-03T17:45:00.677Z,1.00
2022-10-03T17:47:37.590Z,1.00
2022-10-03T17:50:14.556Z,1.00
2022-10-03T17:52:46.408Z,1.00
2022-10-03T17:55:20.020Z,1.00
2022-10-03T17:57:51.808Z,1.00
2022-10-03T18:00:22.797Z,1.00
2022-10-03T18:02:59.851Z,1.00
2022-10-03T18:05:30.699Z,1.00
2022-10-03T18:08:05.565Z,1.00
2022-10-03T18:10:37.781Z,1.00
2022-10-03T18:13:15.829Z,1.00
2022-10-03T18:16:14.695Z,1.00
2022-10-03T18:19:07.123Z,1.00
2022-10-03T18:21:46.868Z,1.00
2022-10-03T18:24:26.060Z,1.00
2022-10-03T18:27:10.926Z,1.00
2022-10-03T18:29:48.392Z,1.00
2022-10-03T18:32:22.528Z,1.00
2022-10-03T18:35:04.192Z,1.00
2022-10-03T18:38:04.835Z,1.00
2022-10-03T18:40:36.144Z,1.00
2022-10-03T18:43:06.497Z,1.00
2022-10-03T18:45:44.088Z,1.00
2022-10-03T18:48:17.715Z,1.00
2022-10-03T18:50:59.046Z,1.00
2022-10-03T18:53:36.236Z,1.00
2022-10-03T18:56:08.345Z,1.00
2022-10-03T18:58:39.030Z,1.00
2022-10-03T19:01:19.561Z,1.00
2022-10-03T19:03:53.136Z,1.00
2022-10-03T19:06:26.271Z,1.00
2022-10-03T19:08:57.555Z,1.00
2022-10-03T19:11:31.008Z,1.00
2022-10-03T19:14:04.170Z,1.00
2022-10-03T19:16:47.255Z,1.00
2022-10-03T19:19:24.831Z,1.00
2022-10-03T19:21:54.830Z,1.00
2022-10-03T19:24:53.469Z,1.00
2022-10-03T19:27:19.600Z,1.00
2022-10-03T19:29:52.116Z,1.00
2022-10-03T19:32:27.273Z,1.00
2022-10-03T19:34:59.501Z,1.00
2022-10-03T19:37:45.100Z,1.00
2022-10-03T19:40:16.610Z,1.00
2022-10-03T19:42:49.301Z,1.00
2022-10-03T19:45:19.979Z,1.00
2022-10-03T19:47:53.536Z,1.00
2022-10-03T19:50:28.045Z,1.00
2022-10-03T19:52:57.681Z,1.00
2022-10-03T19:55:31.853Z,1.00
2022-10-03T19:58:02.359Z,1.00
2022-10-03T20:00:32.754Z,1.00
2022-10-03T20:03:07.933Z,1.00
2022-10-03T20:05:43.989Z,1.00
2022-10-03T20:08:22.910Z,1.00
2022-10-03T20:11:05.592Z,1.00
2022-10-03T20:13:33.770Z,1.00
2022-10-03T20:16:03.518Z,1.00
2022-10-03T20:18:34.549Z,1.00
2022-10-03T20:21:04.118Z,1.00
2022-10-03T20:23:35.806Z,1.00
2022-10-03T20:26:10.097Z,1.00
2022-10-03T20:29:01.230Z,1.00
2022-10-03T20:31:30.842Z,1.00
2022-10-03T20:34:02.121Z,1.00
2022-10-03T20:36:32.656Z,1.00
2022-10-03T20:39:12.067Z,1.00
2022-10-03T20:41:53.850Z,1.00
2022-10-03T20:44:36.065Z,1.00
2022-10-03T20:47:08.353Z,1.00
2022-10-03T20:49:40.815Z,1.00
2022-10-03T20:52:17.567Z,1.00
2022-10-03T20:54:51.496Z,1.00
2022-10-03T20:57:22.320Z,1.00
2022-10-03T20:59:53.551Z,1.00
2022-10-03T21:02:28.937Z,1.00
2022-10-03T21:05:02.107Z,1.00
2022-10-03T21:07:37.521Z,1.00
2022-10-03T21:10:18.809Z,1.00
2022-10-03T21:12:49.889Z,1.00
2022-10-03T21:15:29.747Z,1.00
2022-10-03T21:17:58.988Z,1.00
2022-10-03T21:20:35.661Z,1.00
2022-10-03T21:23:21.338Z,1.00
2022-10-03T21:25:53.757Z,1.00
2022-10-03T21:28:27.680Z,1.00
2022-10-03T21:31:24.990Z,1.00
2022-10-03T21:34:06.641Z,1.00
2022-10-03T21:36:40.693Z,1.00
2022-10-03T21:39:18.292Z,1.00
2022-10-03T21:42:01.247Z,1.00
2022-10-03T21:44:45.892Z,1.00
2022-10-03T21:47:29.353Z,1.00
2022-10-03T21:49:59.353Z,1.00
2022-10-03T21:52:51.322Z,1.00
2022-10-03T21:55:51.100Z,1.00
2022-10-03T21:58:45.203Z,1.00
2022-10-03T22:01:19.087Z,1.00
2022-10-03T22:03:52.609Z,1.00
2022-10-03T22:06:25.397Z,1.00
2022-10-03T22:08:54.551Z,1.00
2022-10-03T22:11:35.643Z,1.00
2022-10-03T22:14:14.221Z,1.00
2022-10-03T22:16:49.820Z,1.00
2022-10-03T22:19:23.132Z,1.00
2022-10-03T22:22:04.611Z,1.00
2022-10-03T22:24:44.528Z,1.00
2022-10-03T22:27:18.902Z,1.00
2022-10-03T22:29:59.876Z,1.00
2022-10-03T22:32:34.103Z,1.00
2022-10-03T22:35:30.082Z,1.00
2022-10-03T22:37:58.659Z,1.00
2022-10-03T22:40:28.126Z,1.00
2022-10-03T22:42:58.089Z,1.00
2022-10-03T22:45:30.724Z,1.00
2022-10-03T22:48:00.366Z,1.00
2022-10-03T22:50:31.557Z,1.00
2022-10-03T22:53:01.477Z,1.00
2022-10-03T22:55:31.414Z,1.00
2022-10-03T22:58:02.108Z,1.00
2022-10-03T23:00:35.633Z,1.00
2022-10-03T23:03:08.271Z,1.00
2022-10-03T23:06:11.331Z,1.00
2022-10-03T23:08:49.965Z,1.00
2022-10-03T23:11:23.160Z,1.00
2022-10-03T23:13:51.635Z,1.00
2022-10-03T23:16:39.277Z,1.00
2022-10-03T23:19:20.213Z,1.00
2022-10-03T23:21:49.729Z,1.00
2022-10-03T23:24:24.235Z,1.00
2022-10-03T23:27:33.808Z,1.00
2022-10-03T23:30:50.613Z,1.00
2022-10-03T23:33:50.125Z,1.00
2022-10-03T23:36:19.488Z,1.00
2022-10-03T23:39:02.823Z,1.00
2022-10-03T23:41:44.828Z,1.00
2022-10-03T23:44:50.932Z,1.00
2022-10-03T23:47:24.245Z,1.00
2022-10-03T23:49:55.450Z,1.00
2022-10-03T23:52:27.304Z,1.00
2022-10-03T23:54:58.304Z,1.00
2022-10-03T23:57:31.763Z,1.00
2022-10-03T23:59:59.851Z,1.00
